createdAt,value
2019-02-19T00:00:15.150Z,856.25
2019-02-19T00:01:15.013Z,856.24
2019-02-19T00:02:14.886Z,856.26
2019-02-19T00:03:14.752Z,856.24
2019-02-19T00:04:14.620Z,856.18
2019-02-19T00:05:14.491Z,856.22
2019-02-19T00:06:14.355Z,856.23
2019-02-19T00:07:14.224Z,856.23
2019-02-19T00:08:14.093Z,856.22
2019-02-19T00:09:13.958Z,856.24
2019-02-19T00:10:13.837Z,856.23
2019-02-19T00:11:13.698Z,856.26
2019-02-19T00:12:13.567Z,856.20
2019-02-19T00:13:13.434Z,856.21
2019-02-19T00:14:13.303Z,856.20
2019-02-19T00:15:13.174Z,856.22
2019-02-19T00:16:13.040Z,856.22
2019-02-19T00:17:12.910Z,856.21
2019-02-19T00:18:12.776Z,856.22
2019-02-19T00:19:12.642Z,856.26
2019-02-19T00:20:12.512Z,856.26
2019-02-19T00:21:12.380Z,856.25
2019-02-19T00:22:12.249Z,856.23
2019-02-19T00:23:12.116Z,856.26
2019-02-19T00:24:11.986Z,856.21
2019-02-19T00:25:11.851Z,856.25
2019-02-19T00:26:11.728Z,856.23
2019-02-19T00:27:11.588Z,856.24
2019-02-19T00:28:11.457Z,856.22
2019-02-19T00:29:11.327Z,856.23
2019-02-19T00:30:11.194Z,856.23
2019-02-19T00:31:11.060Z,856.22
2019-02-19T00:32:10.932Z,856.23
2019-02-19T00:33:10.800Z,856.19
2019-02-19T00:34:10.666Z,856.21
2019-02-19T00:35:10.534Z,856.19
2019-02-19T00:36:10.402Z,856.17
2019-02-19T00:37:10.269Z,856.19
2019-02-19T00:38:10.138Z,856.18
2019-02-19T00:39:10.006Z,856.17
2019-02-19T00:40:09.872Z,856.17
2019-02-19T00:41:09.742Z,856.17
2019-02-19T00:42:09.609Z,856.19
2019-02-19T00:43:09.478Z,856.18
2019-02-19T00:44:09.343Z,856.14
2019-02-19T00:45:16.481Z,856.13
2019-02-19T00:46:09.084Z,856.16
2019-02-19T00:47:08.950Z,856.15
2019-02-19T00:48:08.817Z,856.16
2019-02-19T00:49:08.688Z,856.15
2019-02-19T00:50:08.559Z,856.14
2019-02-19T00:51:08.422Z,856.13
2019-02-19T00:52:08.289Z,856.14
2019-02-19T00:53:08.160Z,856.13
2019-02-19T00:54:08.027Z,856.11
2019-02-19T00:55:07.893Z,856.15
2019-02-19T00:56:07.760Z,856.16
2019-02-19T00:57:07.627Z,856.18
2019-02-19T00:58:07.504Z,856.17
2019-02-19T00:59:07.364Z,856.15
2019-02-19T01:00:07.233Z,856.18
2019-02-19T01:01:07.101Z,856.21
2019-02-19T01:02:06.968Z,856.21
2019-02-19T01:03:06.842Z,856.19
2019-02-19T01:04:06.727Z,856.21
2019-02-19T01:05:06.573Z,856.19
2019-02-19T01:06:06.445Z,856.20
2019-02-19T01:07:06.320Z,856.20
2019-02-19T01:08:06.180Z,856.20
2019-02-19T01:09:06.045Z,856.16
2019-02-19T01:10:05.915Z,856.19
2019-02-19T01:11:05.780Z,856.22
2019-02-19T01:12:05.648Z,856.22
2019-02-19T01:13:05.518Z,856.25
2019-02-19T01:14:05.405Z,856.28
2019-02-19T01:15:05.255Z,856.23
2019-02-19T01:16:05.123Z,856.23
2019-02-19T01:17:04.992Z,856.22
2019-02-19T01:18:04.859Z,856.28
2019-02-19T01:19:04.727Z,856.24
2019-02-19T01:20:04.594Z,856.23
2019-02-19T01:21:04.463Z,856.23
2019-02-19T01:22:04.328Z,856.24
2019-02-19T01:23:04.196Z,856.24
2019-02-19T01:24:04.068Z,856.26
2019-02-19T01:25:03.933Z,856.26
2019-02-19T01:26:03.801Z,856.26
2019-02-19T01:27:03.674Z,856.29
2019-02-19T01:28:03.548Z,856.30
2019-02-19T01:29:03.413Z,856.30
2019-02-19T01:30:03.280Z,856.30
2019-02-19T01:31:03.143Z,856.30
2019-02-19T01:32:03.008Z,856.29
2019-02-19T01:33:02.875Z,856.33
2019-02-19T01:34:02.744Z,856.29
2019-02-19T01:35:02.610Z,856.34
2019-02-19T01:36:02.480Z,856.36
2019-02-19T01:37:02.347Z,856.33
2019-02-19T01:38:02.216Z,856.33
2019-02-19T01:39:02.081Z,856.38
2019-02-19T01:40:01.949Z,856.30
2019-02-19T01:41:01.816Z,856.29
2019-02-19T01:42:01.685Z,856.30
2019-02-19T01:43:01.552Z,856.30
2019-02-19T01:44:01.421Z,856.28
2019-02-19T01:45:01.288Z,856.23
2019-02-19T01:46:01.161Z,856.28
2019-02-19T01:47:01.026Z,856.24
2019-02-19T01:48:00.891Z,856.23
2019-02-19T01:49:00.765Z,856.22
2019-02-19T01:50:00.627Z,856.23
2019-02-19T01:51:00.505Z,856.20
2019-02-19T01:52:00.366Z,856.23
2019-02-19T01:53:00.232Z,856.25
2019-02-19T01:54:00.100Z,856.24
2019-02-19T01:54:59.965Z,856.21
2019-02-19T01:55:59.832Z,856.21
2019-02-19T01:56:59.701Z,856.17
2019-02-19T01:57:59.568Z,856.18
2019-02-19T01:58:59.437Z,856.14
2019-02-19T01:59:59.303Z,856.16
2019-02-19T02:00:59.170Z,856.15
2019-02-19T02:01:59.040Z,856.13
2019-02-19T02:02:58.906Z,856.14
2019-02-19T02:03:58.777Z,856.15
2019-02-19T02:04:58.640Z,856.14
2019-02-19T02:05:58.514Z,856.16
2019-02-19T02:06:58.380Z,856.15
2019-02-19T02:07:58.244Z,856.18
2019-02-19T02:08:58.119Z,856.17
2019-02-19T02:09:57.984Z,856.16
2019-02-19T02:10:57.848Z,856.16
2019-02-19T02:11:57.715Z,856.17
2019-02-19T02:12:57.585Z,856.17
2019-02-19T02:13:57.452Z,856.13
2019-02-19T02:14:57.318Z,856.16
2019-02-19T02:15:57.186Z,856.13
2019-02-19T02:16:57.052Z,856.17
2019-02-19T02:17:56.920Z,856.16
2019-02-19T02:18:56.785Z,856.19
2019-02-19T02:19:56.689Z,856.18
2019-02-19T02:20:56.528Z,856.18
2019-02-19T02:21:56.389Z,856.14
2019-02-19T02:22:56.258Z,856.16
2019-02-19T02:23:56.125Z,856.14
2019-02-19T02:24:55.991Z,856.17
2019-02-19T02:25:55.859Z,856.16
2019-02-19T02:26:55.725Z,856.12
2019-02-19T02:27:55.592Z,856.12
2019-02-19T02:28:55.466Z,856.16
2019-02-19T02:29:55.327Z,856.17
2019-02-19T02:30:55.196Z,856.18
2019-02-19T02:31:55.063Z,856.17
2019-02-19T02:32:54.928Z,856.13
2019-02-19T02:33:54.804Z,856.15
2019-02-19T02:34:54.667Z,856.13
2019-02-19T02:35:54.531Z,856.14
2019-02-19T02:36:54.403Z,856.16
2019-02-19T02:37:54.289Z,856.19
2019-02-19T02:38:54.133Z,856.17
2019-02-19T02:39:54.001Z,856.18
2019-02-19T02:40:55.143Z,856.16
2019-02-19T02:41:53.736Z,856.12
2019-02-19T02:42:53.602Z,856.09
2019-02-19T02:43:53.469Z,856.10
2019-02-19T02:44:53.340Z,856.06
2019-02-19T02:45:53.948Z,856.10
2019-02-19T02:46:53.072Z,856.14
2019-02-19T02:47:52.989Z,856.16
2019-02-19T02:48:52.810Z,856.15
2019-02-19T02:49:52.679Z,856.09
2019-02-19T02:50:52.545Z,856.10
2019-02-19T02:51:52.410Z,856.07
2019-02-19T02:52:52.278Z,856.12
2019-02-19T02:53:52.147Z,856.09
2019-02-19T02:54:52.025Z,856.09
2019-02-19T02:55:51.878Z,856.10
2019-02-19T02:56:51.744Z,856.10
2019-02-19T02:57:51.613Z,856.09
2019-02-19T02:58:51.480Z,856.09
2019-02-19T02:59:51.350Z,856.06
2019-02-19T03:00:51.218Z,856.06
2019-02-19T03:01:51.088Z,856.07
2019-02-19T03:02:50.949Z,856.04
2019-02-19T03:03:50.816Z,856.02
2019-02-19T03:04:50.684Z,856.03
2019-02-19T03:05:50.553Z,856.06
2019-02-19T03:06:50.435Z,856.02
2019-02-19T03:07:50.287Z,856.09
2019-02-19T03:08:50.152Z,856.03
2019-02-19T03:09:50.025Z,856.07
2019-02-19T03:10:49.886Z,856.03
2019-02-19T03:11:49.755Z,856.09
2019-02-19T03:12:49.626Z,856.06
2019-02-19T03:13:49.490Z,856.05
2019-02-19T03:14:49.357Z,856.09
2019-02-19T03:15:49.225Z,856.11
2019-02-19T03:16:49.092Z,856.08
2019-02-19T03:17:48.958Z,856.09
2019-02-19T03:18:48.828Z,856.09
2019-02-19T03:19:48.695Z,856.09
2019-02-19T03:20:48.569Z,856.08
2019-02-19T03:21:48.428Z,856.06
2019-02-19T03:22:48.294Z,856.10
2019-02-19T03:23:48.161Z,856.10
2019-02-19T03:24:48.028Z,856.09
2019-02-19T03:25:47.896Z,856.13
2019-02-19T03:26:47.766Z,856.14
2019-02-19T03:27:47.629Z,856.16
2019-02-19T03:28:47.502Z,856.19
2019-02-19T03:29:47.364Z,856.22
2019-02-19T03:30:47.233Z,856.23
2019-02-19T03:31:47.103Z,856.22
2019-02-19T03:32:46.967Z,856.27
2019-02-19T03:33:46.835Z,856.28
2019-02-19T03:34:46.705Z,856.26
2019-02-19T03:35:46.565Z,856.26
2019-02-19T03:36:46.435Z,856.24
2019-02-19T03:37:46.303Z,856.22
2019-02-19T03:38:46.173Z,856.23
2019-02-19T03:39:46.045Z,856.25
2019-02-19T03:40:45.902Z,856.26
2019-02-19T03:41:45.769Z,856.28
2019-02-19T03:42:45.640Z,856.26
2019-02-19T03:43:45.505Z,856.29
2019-02-19T03:44:45.370Z,856.27
2019-02-19T03:45:45.236Z,856.28
2019-02-19T03:46:45.104Z,856.34
2019-02-19T03:47:45.026Z,856.34
2019-02-19T03:48:44.835Z,856.31
2019-02-19T03:49:44.704Z,856.29
2019-02-19T03:50:44.573Z,856.32
2019-02-19T03:51:44.438Z,856.33
2019-02-19T03:52:44.304Z,856.33
2019-02-19T03:53:44.172Z,856.37
2019-02-19T03:54:44.040Z,856.36
2019-02-19T03:55:43.905Z,856.42
2019-02-19T03:56:43.774Z,856.38
2019-02-19T03:57:43.654Z,856.39
2019-02-19T03:58:43.508Z,856.40
2019-02-19T03:59:43.374Z,856.44
2019-02-19T04:00:43.240Z,856.44
2019-02-19T04:01:43.112Z,856.37
2019-02-19T04:02:42.976Z,856.42
2019-02-19T04:03:45.667Z,856.39
2019-02-19T04:04:45.665Z,856.36
2019-02-19T04:05:43.175Z,856.39
2019-02-19T04:06:53.288Z,856.37
2019-02-19T04:07:42.333Z,856.38
2019-02-19T04:08:43.170Z,856.42
2019-02-19T04:09:44.670Z,856.40
2019-02-19T04:10:48.669Z,856.38
2019-02-19T04:11:42.666Z,856.40
2019-02-19T04:12:43.214Z,856.42
2019-02-19T04:13:42.171Z,856.40
2019-02-19T04:14:44.167Z,856.42
2019-02-19T04:15:42.167Z,856.45
2019-02-19T04:16:41.713Z,856.43
2019-02-19T04:17:45.705Z,856.46
2019-02-19T04:18:47.670Z,856.47
2019-02-19T04:19:40.735Z,856.47
2019-02-19T04:20:47.168Z,856.46
2019-02-19T04:21:41.169Z,856.52
2019-02-19T04:22:47.170Z,856.45
2019-02-19T04:23:45.188Z,856.52
2019-02-19T04:24:40.669Z,856.51
2019-02-19T04:25:50.692Z,856.54
2019-02-19T04:26:39.803Z,856.54
2019-02-19T04:27:39.666Z,856.54
2019-02-19T04:28:39.535Z,856.55
2019-02-19T04:29:39.404Z,856.55
2019-02-19T04:30:50.214Z,856.58
2019-02-19T04:32:02.668Z,856.60
2019-02-19T04:32:41.678Z,856.62
2019-02-19T04:33:45.682Z,856.60
2019-02-19T04:34:39.669Z,856.62
2019-02-19T04:35:38.604Z,856.60
2019-02-19T04:36:39.208Z,856.61
2019-02-19T04:37:41.172Z,856.60
2019-02-19T04:40:29.287Z,856.65
2019-02-19T04:42:41.960Z,856.66
2019-02-19T04:44:50.346Z,856.72
2019-02-19T04:45:49.777Z,856.67
2019-02-19T04:47:57.530Z,856.72
2019-02-19T04:48:57.358Z,856.70
2019-02-19T04:50:50.077Z,856.68
2019-02-19T04:51:49.907Z,856.69
2019-02-19T04:53:42.628Z,856.66
2019-02-19T04:54:42.412Z,856.64
2019-02-19T04:56:35.103Z,856.64
2019-02-19T04:57:34.933Z,856.62
2019-02-19T04:58:34.969Z,856.61
2019-02-19T04:59:34.663Z,856.61
2019-02-19T05:00:34.524Z,856.58
2019-02-19T05:01:34.410Z,856.57
2019-02-19T05:02:34.259Z,856.53
2019-02-19T05:03:34.123Z,856.52
2019-02-19T05:04:33.994Z,856.56
2019-02-19T05:05:33.861Z,856.56
2019-02-19T05:06:33.721Z,856.55
2019-02-19T05:07:33.595Z,856.57
2019-02-19T05:08:33.454Z,856.58
2019-02-19T05:09:33.325Z,856.56
2019-02-19T05:10:33.188Z,856.56
2019-02-19T05:11:33.091Z,856.56
2019-02-19T05:12:32.921Z,856.59
2019-02-19T05:13:32.805Z,856.56
2019-02-19T05:14:32.654Z,856.54
2019-02-19T05:15:32.647Z,856.56
2019-02-19T05:16:40.460Z,856.56
2019-02-19T05:17:32.256Z,856.56
2019-02-19T05:18:32.122Z,856.58
2019-02-19T05:19:31.986Z,856.60
2019-02-19T05:20:31.851Z,856.60
2019-02-19T05:21:31.720Z,856.58
2019-02-19T05:22:31.583Z,856.61
2019-02-19T05:23:31.454Z,856.61
2019-02-19T05:24:31.316Z,856.57
2019-02-19T05:25:31.183Z,856.59
2019-02-19T05:26:31.056Z,856.60
2019-02-19T05:27:30.915Z,856.53
2019-02-19T05:28:31.013Z,856.54
2019-02-19T05:29:30.652Z,856.53
2019-02-19T05:30:30.700Z,856.51
2019-02-19T05:31:30.382Z,856.52
2019-02-19T05:32:30.247Z,856.53
2019-02-19T05:33:30.145Z,856.51
2019-02-19T05:34:29.981Z,856.49
2019-02-19T05:35:29.852Z,856.52
2019-02-19T05:36:29.711Z,856.55
2019-02-19T05:37:29.580Z,856.58
2019-02-19T05:38:29.447Z,856.57
2019-02-19T05:39:29.312Z,856.60
2019-02-19T05:40:29.179Z,856.60
2019-02-19T05:41:29.044Z,856.63
2019-02-19T05:42:28.907Z,856.60
2019-02-19T05:43:28.777Z,856.62
2019-02-19T05:44:28.643Z,856.61
2019-02-19T05:45:28.507Z,856.60
2019-02-19T05:46:28.376Z,856.67
2019-02-19T05:47:28.240Z,856.66
2019-02-19T05:48:28.111Z,856.65
2019-02-19T05:49:27.975Z,856.67
2019-02-19T05:50:27.847Z,856.65
2019-02-19T05:51:27.705Z,856.69
2019-02-19T05:52:27.579Z,856.63
2019-02-19T05:53:27.440Z,856.69
2019-02-19T05:54:27.306Z,856.73
2019-02-19T05:55:27.176Z,856.74
2019-02-19T05:56:27.038Z,856.75
2019-02-19T05:57:26.906Z,856.78
2019-02-19T05:58:26.774Z,856.78
2019-02-19T05:59:26.640Z,856.81
2019-02-19T06:00:26.513Z,856.82
2019-02-19T06:01:26.411Z,856.82
2019-02-19T06:02:26.243Z,856.81
2019-02-19T06:03:26.162Z,856.80
2019-02-19T06:04:25.971Z,856.85
2019-02-19T06:05:25.836Z,856.83
2019-02-19T06:06:25.711Z,856.81
2019-02-19T06:07:25.569Z,856.84
2019-02-19T06:08:25.434Z,856.84
2019-02-19T06:09:25.303Z,856.87
2019-02-19T06:10:25.167Z,856.86
2019-02-19T06:11:25.036Z,856.88
2019-02-19T06:12:24.900Z,856.89
2019-02-19T06:13:24.766Z,856.89
2019-02-19T06:14:24.634Z,856.93
2019-02-19T06:15:24.501Z,856.92
2019-02-19T06:16:24.366Z,856.99
2019-02-19T06:17:24.234Z,856.96
2019-02-19T06:18:24.098Z,857.00
2019-02-19T06:19:23.962Z,857.01
2019-02-19T06:20:23.829Z,856.99
2019-02-19T06:21:23.736Z,857.05
2019-02-19T06:22:23.562Z,857.01
2019-02-19T06:23:23.429Z,857.01
2019-02-19T06:24:23.293Z,856.97
2019-02-19T06:25:23.161Z,857.01
2019-02-19T06:26:23.027Z,857.01
2019-02-19T06:27:22.898Z,857.00
2019-02-19T06:28:22.760Z,857.00
2019-02-19T06:29:22.622Z,857.01
2019-02-19T06:30:22.486Z,856.97
2019-02-19T06:31:22.353Z,857.01
2019-02-19T06:32:22.220Z,857.02
2019-02-19T06:33:22.086Z,857.05
2019-02-19T06:34:21.952Z,857.09
2019-02-19T06:35:21.817Z,857.09
2019-02-19T06:36:21.683Z,857.11
2019-02-19T06:37:21.551Z,857.11
2019-02-19T06:38:21.414Z,857.11
2019-02-19T06:39:21.280Z,857.11
2019-02-19T06:40:21.147Z,857.11
2019-02-19T06:41:21.019Z,857.14
2019-02-19T06:42:20.878Z,857.15
2019-02-19T06:43:20.766Z,857.14
2019-02-19T06:44:20.611Z,857.17
2019-02-19T06:45:20.481Z,857.20
2019-02-19T06:46:20.343Z,857.23
2019-02-19T06:47:20.209Z,857.21
2019-02-19T06:48:20.078Z,857.25
2019-02-19T06:49:19.941Z,857.29
2019-02-19T06:50:19.805Z,857.28
2019-02-19T06:51:19.680Z,857.26
2019-02-19T06:52:19.538Z,857.29
2019-02-19T06:53:19.407Z,857.30
2019-02-19T06:54:19.272Z,857.32
2019-02-19T06:55:19.136Z,857.32
2019-02-19T06:56:19.001Z,857.31
2019-02-19T06:57:18.869Z,857.33
2019-02-19T06:58:18.731Z,857.32
2019-02-19T06:59:18.601Z,857.35
2019-02-19T07:00:18.467Z,857.36
2019-02-19T07:01:18.333Z,857.36
2019-02-19T07:02:18.199Z,857.32
2019-02-19T07:03:18.063Z,857.33
2019-02-19T07:04:17.930Z,857.32
2019-02-19T07:05:17.796Z,857.34
2019-02-19T07:06:17.665Z,857.30
2019-02-19T07:07:17.529Z,857.33
2019-02-19T07:08:17.395Z,857.34
2019-02-19T07:09:17.261Z,857.31
2019-02-19T07:10:17.126Z,857.34
2019-02-19T07:11:16.992Z,857.33
2019-02-19T07:12:16.861Z,857.40
2019-02-19T07:13:16.728Z,857.38
2019-02-19T07:14:16.593Z,857.43
2019-02-19T07:15:16.461Z,857.41
2019-02-19T07:16:16.323Z,857.42
2019-02-19T07:17:16.204Z,857.43
2019-02-19T07:18:16.059Z,857.42
2019-02-19T07:19:15.934Z,857.43
2019-02-19T07:20:15.796Z,857.44
2019-02-19T07:21:15.658Z,857.48
2019-02-19T07:22:15.521Z,857.47
2019-02-19T07:23:15.388Z,857.48
2019-02-19T07:24:15.253Z,857.44
2019-02-19T07:25:15.129Z,857.46
2019-02-19T07:26:14.987Z,857.47
2019-02-19T07:27:14.852Z,857.44
2019-02-19T07:28:14.719Z,857.44
2019-02-19T07:29:15.098Z,857.45
2019-02-19T07:30:14.453Z,857.43
2019-02-19T07:31:14.329Z,857.45
2019-02-19T07:32:14.184Z,857.44
2019-02-19T07:33:14.051Z,857.44
2019-02-19T07:34:13.916Z,857.43
2019-02-19T07:35:13.783Z,857.45
2019-02-19T07:36:13.649Z,857.44
2019-02-19T07:37:13.517Z,857.47
2019-02-19T07:38:13.381Z,857.48
2019-02-19T07:39:13.251Z,857.50
2019-02-19T07:40:13.118Z,857.50
2019-02-19T07:41:12.980Z,857.51
2019-02-19T07:42:12.847Z,857.52
2019-02-19T07:43:12.716Z,857.49
2019-02-19T07:44:12.580Z,857.47
2019-02-19T07:45:12.449Z,857.52
2019-02-19T07:46:12.316Z,857.51
2019-02-19T07:47:12.195Z,857.50
2019-02-19T07:48:12.050Z,857.51
2019-02-19T07:49:11.917Z,857.51
2019-02-19T07:50:11.782Z,857.56
2019-02-19T07:51:11.647Z,857.55
2019-02-19T07:52:11.515Z,857.56
2019-02-19T07:53:11.384Z,857.55
2019-02-19T07:54:11.247Z,857.57
2019-02-19T07:55:11.113Z,857.56
2019-02-19T07:56:10.979Z,857.61
2019-02-19T07:57:10.885Z,857.60
2019-02-19T07:58:10.713Z,857.64
2019-02-19T07:59:10.579Z,857.65
2019-02-19T08:00:10.448Z,857.65
2019-02-19T08:01:10.314Z,857.67
2019-02-19T08:02:10.181Z,857.66
2019-02-19T08:03:10.055Z,857.64
2019-02-19T08:04:09.918Z,857.63
2019-02-19T08:05:09.781Z,857.64
2019-02-19T08:06:09.646Z,857.65
2019-02-19T08:07:09.514Z,857.63
2019-02-19T08:08:09.381Z,857.66
2019-02-19T08:09:09.249Z,857.65
2019-02-19T08:10:09.117Z,857.63
2019-02-19T08:11:08.983Z,857.64
2019-02-19T08:12:08.851Z,857.66
2019-02-19T08:13:08.721Z,857.65
2019-02-19T08:14:08.585Z,857.69
2019-02-19T08:15:08.461Z,857.73
2019-02-19T08:16:08.325Z,857.74
2019-02-19T08:17:08.195Z,857.71
2019-02-19T08:18:08.064Z,857.73
2019-02-19T08:19:07.930Z,857.74
2019-02-19T08:20:15.446Z,857.76
2019-02-19T08:21:07.666Z,857.74
2019-02-19T08:22:07.541Z,857.74
2019-02-19T08:23:07.418Z,857.70
2019-02-19T08:24:07.275Z,857.71
2019-02-19T08:25:07.149Z,857.69
2019-02-19T08:26:07.017Z,857.70
2019-02-19T08:27:06.888Z,857.65
2019-02-19T08:28:06.757Z,857.67
2019-02-19T08:29:13.537Z,857.67
2019-02-19T08:30:06.501Z,857.70
2019-02-19T08:31:06.372Z,857.68
2019-02-19T08:32:06.241Z,857.72
2019-02-19T08:33:06.113Z,857.75
2019-02-19T08:34:05.982Z,857.74
2019-02-19T08:35:05.865Z,857.71
2019-02-19T08:36:05.726Z,857.74
2019-02-19T08:37:05.598Z,857.74
2019-02-19T08:38:05.467Z,857.71
2019-02-19T08:39:05.341Z,857.74
2019-02-19T08:40:05.210Z,857.69
2019-02-19T08:41:05.081Z,857.71
2019-02-19T08:42:04.951Z,857.71
2019-02-19T08:43:04.834Z,857.70
2019-02-19T08:44:04.696Z,857.71
2019-02-19T08:45:04.567Z,857.69
2019-02-19T08:46:04.437Z,857.69
2019-02-19T08:47:04.312Z,857.69
2019-02-19T08:48:04.189Z,857.71
2019-02-19T08:49:04.056Z,857.69
2019-02-19T08:50:03.930Z,857.71
2019-02-19T08:51:03.798Z,857.74
2019-02-19T08:52:03.675Z,857.73
2019-02-19T08:53:03.548Z,857.72
2019-02-19T08:54:03.417Z,857.75
2019-02-19T08:55:03.289Z,857.72
2019-02-19T08:56:03.210Z,857.72
2019-02-19T08:57:03.032Z,857.71
2019-02-19T08:58:02.908Z,857.70
2019-02-19T08:59:02.779Z,857.70
2019-02-19T09:00:02.656Z,857.70
2019-02-19T09:01:02.526Z,857.69
2019-02-19T09:02:02.399Z,857.68
2019-02-19T09:03:02.270Z,857.67
2019-02-19T09:04:02.142Z,857.70
2019-02-19T09:05:02.017Z,857.70
2019-02-19T09:06:01.891Z,857.69
2019-02-19T09:07:01.761Z,857.67
2019-02-19T09:08:01.633Z,857.70
2019-02-19T09:09:01.509Z,857.69
2019-02-19T09:10:01.382Z,857.66
2019-02-19T09:11:01.252Z,857.73
2019-02-19T09:12:01.131Z,857.67
2019-02-19T09:13:00.999Z,857.73
2019-02-19T09:14:00.874Z,857.71
2019-02-19T09:15:00.747Z,857.69
2019-02-19T09:16:00.622Z,857.68
2019-02-19T09:17:00.495Z,857.72
2019-02-19T09:18:00.368Z,857.72
2019-02-19T09:19:00.243Z,857.75
2019-02-19T09:20:00.157Z,857.77
2019-02-19T09:20:59.988Z,857.74
2019-02-19T09:21:59.860Z,857.76
2019-02-19T09:22:59.737Z,857.75
2019-02-19T09:23:59.616Z,857.79
2019-02-19T09:24:59.485Z,857.78
2019-02-19T09:25:59.359Z,857.78
2019-02-19T09:26:59.230Z,857.78
2019-02-19T09:27:59.103Z,857.78
2019-02-19T09:28:58.979Z,857.83
2019-02-19T09:29:58.852Z,857.83
2019-02-19T09:30:58.724Z,857.80
2019-02-19T09:31:58.602Z,857.82
2019-02-19T09:32:58.474Z,857.79
2019-02-19T09:33:58.349Z,857.78
2019-02-19T09:34:58.227Z,857.77
2019-02-19T09:35:58.110Z,857.76
2019-02-19T09:36:57.970Z,857.75
2019-02-19T09:37:57.842Z,857.76
2019-02-19T09:38:57.719Z,857.75
2019-02-19T09:39:57.593Z,857.73
2019-02-19T09:40:57.468Z,857.78
2019-02-19T09:41:57.338Z,857.75
2019-02-19T09:42:57.216Z,857.73
2019-02-19T09:43:57.107Z,857.68
2019-02-19T09:44:56.964Z,857.69
2019-02-19T09:45:58.892Z,857.65
2019-02-19T09:46:56.710Z,857.67
2019-02-19T09:48:01.235Z,857.67
2019-02-19T09:48:56.462Z,857.66
2019-02-19T09:49:56.335Z,857.65
2019-02-19T09:50:56.232Z,857.69
2019-02-19T09:51:56.093Z,857.69
2019-02-19T09:53:00.130Z,857.68
2019-02-19T09:53:55.835Z,857.70
2019-02-19T09:54:55.709Z,857.73
2019-02-19T09:55:55.594Z,857.70
2019-02-19T09:56:55.465Z,857.70
2019-02-19T09:57:55.327Z,857.73
2019-02-19T09:58:55.200Z,857.76
2019-02-19T09:59:55.076Z,857.71
2019-02-19T10:00:54.949Z,857.71
2019-02-19T10:01:54.821Z,857.72
2019-02-19T10:02:54.697Z,857.69
2019-02-19T10:03:54.571Z,857.70
2019-02-19T10:04:54.447Z,857.72
2019-02-19T10:05:54.331Z,857.70
2019-02-19T10:06:54.191Z,857.66
2019-02-19T10:07:55.799Z,857.65
2019-02-19T10:08:53.973Z,857.68
2019-02-19T10:09:53.811Z,857.69
2019-02-19T10:10:53.695Z,857.67
2019-02-19T10:11:53.587Z,857.68
2019-02-19T10:12:53.435Z,857.68
2019-02-19T10:13:53.407Z,857.66
2019-02-19T10:14:53.195Z,857.69
2019-02-19T10:15:53.113Z,857.69
2019-02-19T10:16:53.114Z,857.68
2019-02-19T10:17:52.804Z,857.66
2019-02-19T10:18:52.702Z,857.69
2019-02-19T10:19:52.592Z,857.63
2019-02-19T10:20:52.428Z,857.68
2019-02-19T10:21:52.325Z,857.63
2019-02-19T10:22:52.180Z,857.63
2019-02-19T10:23:52.048Z,857.64
2019-02-19T10:24:52.437Z,857.67
2019-02-19T10:25:51.800Z,857.64
2019-02-19T10:26:51.671Z,857.63
2019-02-19T10:27:51.559Z,857.63
2019-02-19T10:28:51.419Z,857.62
2019-02-19T10:29:51.293Z,857.63
2019-02-19T10:30:51.168Z,857.63
2019-02-19T10:31:51.050Z,857.62
2019-02-19T10:32:50.919Z,857.65
2019-02-19T10:33:50.799Z,857.62
2019-02-19T10:34:50.666Z,857.66
2019-02-19T10:35:50.545Z,857.68
2019-02-19T10:36:50.418Z,857.66
2019-02-19T10:37:51.723Z,857.65
2019-02-19T10:38:50.176Z,857.65
2019-02-19T10:39:50.038Z,857.60
2019-02-19T10:40:49.913Z,857.63
2019-02-19T10:41:49.789Z,857.63
2019-02-19T10:42:49.659Z,857.66
2019-02-19T10:43:49.537Z,857.63
2019-02-19T10:44:49.411Z,857.60
2019-02-19T10:45:49.287Z,857.58
2019-02-19T10:46:49.158Z,857.57
2019-02-19T10:47:49.039Z,857.58
2019-02-19T10:48:48.911Z,857.57
2019-02-19T10:49:48.787Z,857.56
2019-02-19T10:50:48.660Z,857.54
2019-02-19T10:51:48.536Z,857.53
2019-02-19T10:52:48.408Z,857.56
2019-02-19T10:53:48.284Z,857.54
2019-02-19T10:54:48.159Z,857.55
2019-02-19T10:55:48.036Z,857.55
2019-02-19T10:56:47.909Z,857.53
2019-02-19T10:57:47.783Z,857.53
2019-02-19T10:58:47.659Z,857.57
2019-02-19T10:59:47.532Z,857.53
2019-02-19T11:00:47.408Z,857.58
2019-02-19T11:01:47.285Z,857.52
2019-02-19T11:02:47.159Z,857.54
2019-02-19T11:03:47.031Z,857.53
2019-02-19T11:04:46.907Z,857.49
2019-02-19T11:05:46.781Z,857.50
2019-02-19T11:06:46.656Z,857.49
2019-02-19T11:07:46.530Z,857.48
2019-02-19T11:08:46.409Z,857.49
2019-02-19T11:09:46.281Z,857.51
2019-02-19T11:10:46.158Z,857.51
2019-02-19T11:11:46.034Z,857.48
2019-02-19T11:12:45.905Z,857.48
2019-02-19T11:13:45.783Z,857.48
2019-02-19T11:14:45.657Z,857.45
2019-02-19T11:15:45.532Z,857.45
2019-02-19T11:16:45.408Z,857.46
2019-02-19T11:17:45.283Z,857.42
2019-02-19T11:18:45.159Z,857.39
2019-02-19T11:19:45.032Z,857.39
2019-02-19T11:20:44.907Z,857.36
2019-02-19T11:21:44.779Z,857.39
2019-02-19T11:22:44.657Z,857.35
2019-02-19T11:23:44.531Z,857.34
2019-02-19T11:24:44.412Z,857.34
2019-02-19T11:25:44.281Z,857.32
2019-02-19T11:26:44.155Z,857.31
2019-02-19T11:27:44.032Z,857.29
2019-02-19T11:28:43.908Z,857.26
2019-02-19T11:29:43.788Z,857.30
2019-02-19T11:30:43.655Z,857.29
2019-02-19T11:31:43.533Z,857.27
2019-02-19T11:32:43.405Z,857.25
2019-02-19T11:33:43.282Z,857.30
2019-02-19T11:34:43.158Z,857.25
2019-02-19T11:35:43.034Z,857.22
2019-02-19T11:36:42.908Z,857.24
2019-02-19T11:37:42.784Z,857.21
2019-02-19T11:38:42.659Z,857.19
2019-02-19T11:39:42.533Z,857.21
2019-02-19T11:40:42.411Z,857.20
2019-02-19T11:41:42.293Z,857.17
2019-02-19T11:42:42.164Z,857.20
2019-02-19T11:43:42.041Z,857.17
2019-02-19T11:44:41.913Z,857.17
2019-02-19T11:45:41.787Z,857.15
2019-02-19T11:46:41.666Z,857.10
2019-02-19T11:47:41.546Z,857.10
2019-02-19T11:48:41.420Z,857.12
2019-02-19T11:49:41.295Z,857.08
2019-02-19T11:50:41.169Z,857.11
2019-02-19T11:51:41.052Z,857.10
2019-02-19T11:52:40.927Z,857.08
2019-02-19T11:53:40.798Z,857.06
2019-02-19T11:54:40.676Z,857.08
2019-02-19T11:55:40.551Z,857.05
2019-02-19T11:56:40.426Z,857.04
2019-02-19T11:57:40.301Z,857.05
2019-02-19T11:58:40.179Z,857.05
2019-02-19T11:59:40.053Z,857.09
2019-02-19T12:00:39.936Z,857.04
2019-02-19T12:01:39.811Z,857.03
2019-02-19T12:02:39.686Z,857.04
2019-02-19T12:03:39.562Z,857.00
2019-02-19T12:04:39.435Z,857.03
2019-02-19T12:05:39.311Z,857.03
2019-02-19T12:06:39.185Z,856.99
2019-02-19T12:07:39.062Z,857.00
2019-02-19T12:08:39.463Z,856.98
2019-02-19T12:09:38.814Z,856.97
2019-02-19T12:10:38.690Z,857.01
2019-02-19T12:11:38.567Z,856.96
2019-02-19T12:12:38.443Z,856.96
2019-02-19T12:13:38.318Z,856.96
2019-02-19T12:14:38.194Z,856.92
2019-02-19T12:15:38.075Z,856.96
2019-02-19T12:16:37.955Z,856.92
2019-02-19T12:17:37.822Z,856.94
2019-02-19T12:18:45.651Z,856.90
2019-02-19T12:19:37.578Z,856.89
2019-02-19T12:20:37.449Z,856.85
2019-02-19T12:21:37.329Z,856.91
2019-02-19T12:22:37.216Z,856.88
2019-02-19T12:23:37.079Z,856.90
2019-02-19T12:24:36.954Z,856.84
2019-02-19T12:25:36.829Z,856.87
2019-02-19T12:26:36.705Z,856.83
2019-02-19T12:27:36.582Z,856.82
2019-02-19T12:28:36.458Z,856.79
2019-02-19T12:29:36.333Z,856.85
2019-02-19T12:30:36.207Z,856.83
2019-02-19T12:31:36.091Z,856.82
2019-02-19T12:32:35.960Z,856.78
2019-02-19T12:33:35.835Z,856.83
2019-02-19T12:34:35.709Z,856.82